首页
METAR-TAF:

METAR-TAF

机场 :

Rawlins Municipal Airport (Harvey Field)

Rawlins, 怀俄明州, 美国

纬度: 41-48-20N, 经度: 107-11-59W, 海拔: 2077米

当前天气观测

该预报发布于1小时和8分钟前的14:53 UTC
风速28节,风向西,有时为35节阵风
温度 -3°C
湿度 74%
气压 1014 hPa
能見度: 14.5公里
天空无云
小雪

METAR: KRWL 131453Z AUTO 26028G35KT 9SM -SN CLR M03/M07 A2995 RMK AO2 PK WND 25042/1409 SLP154 P0000 60000 T10281067 51012

时间: 09:01 (16:01 UTC)

预报

该预报发布于2小时和2分钟前的13:59 UTC
预报有效从13日的 14点(UTC)到 14日的 12点(UTC)
风速30节,风向西转西南,有时为44节阵风
能見度: 8.0公里
天空无云
小雪
从 13日的 2000点(UTC)
风速20节,风向西,有时为30节阵风
能見度: 10公里
阴天层高于15000英尺
从 14日的 0500点(UTC)
风速6节,风向西转西南
能見度: 4.8公里
多云层高于1000英尺
阴天层高于3000英尺
小雪, 轻雾

TAF: KRWL 131359Z 1314/1412 25030G44KT 5SM -SN SKC FM132000 27020G30KT P6SM OVC150 FM140500 24006KT 3SM -SN BR BKN010 OVC030

超过4000个机场的气象观测和天气预报(METAR&TAF报告)。

可查询的气象台以黄色和红色小点在地图上表示。

将鼠标移到小点上方,可查看气象台名称。

然后点击查看天气观测和预报。

如需切换地图:点击带黑十字的绿色按钮放大地图;点击带横线的绿色按钮缩小地图;或者点击绿色箭头查看邻近地区的地图。


METAR-TAF: